Time;durP1;ratioP1;P1;durP2;ratioP2;P2;SDS_P1;SDS_P2;PMS_P1;PMS_P2;Temp;Humidity;BMP_temperature;BMP_pressure;BME280_temperature;BME280_humidity;BME280_pressure;Samples;Min_cycle;Max_cycle;Signal;HPM_P1;HPM_P2
2023/04/13 00:01:00;;;;;;;11.25;7.97;;;;;;;;;;5078366;28;20351;-92
2023/04/13 00:03:29;;;;;;;23.40;11.38;;;;;;;;;;5078281;28;20032;-91
2023/04/13 00:05:55;;;;;;;18.42;11.70;;;;;;;;;;5048846;28;20075;-91
2023/04/13 00:08:21;;;;;;;19.00;10.55;;;;;;;;;;5057681;28;20390;-90
2023/04/13 00:10:49;;;;;;;19.95;10.68;;;;;;;;;;5058113;28;20044;-91
2023/04/13 00:13:15;;;;;;;25.52;12.85;;;;;;;;;;5057817;28;20071;-90
2023/04/13 00:15:42;;;;;;;22.92;11.32;;;;;;;;;;5040389;28;20029;-89
2023/04/13 00:18:09;;;;;;;16.98;9.98;;;;;;;;;;5057529;28;20056;-90
2023/04/13 00:20:35;;;;;;;18.88;10.27;;;;;;;;;;5058092;28;20033;-91
2023/04/13 00:23:01;;;;;;;24.25;11.13;;;;;;;;;;5057921;28;20322;-91
2023/04/13 00:25:28;;;;;;;21.70;12.75;;;;;;;;;;5065947;28;20410;-89
2023/04/13 00:27:54;;;;;;;28.90;13.88;;;;;;;;;;5077907;28;20028;-90
2023/04/13 00:30:21;;;;;;;25.65;12.50;;;;;;;;;;5077559;28;20028;-90
2023/04/13 00:32:47;;;;;;;28.33;11.82;;;;;;;;;;5077584;28;20468;-89
2023/04/13 00:35:23;;;;;;;21.25;9.32;;;;;;;;;;5077393;28;20033;-90
2023/04/13 00:37:50;;;;;;;16.52;8.65;;;;;;;;;;5077796;28;20059;-91
2023/04/13 00:40:16;;;;;;;13.32;7.88;;;;;;;;;;5059492;28;20037;-91
2023/04/13 00:42:46;;;;;;;9.90;7.43;;;;;;;;;;5077430;28;20025;-91
2023/04/13 00:45:12;;;;;;;10.38;7.32;;;;;;;;;;5077555;28;20029;-90
2023/04/13 00:47:40;;;;;;;11.45;7.78;;;;;;;;;;5059744;28;20115;-90
2023/04/13 00:50:07;;;;;;;10.70;7.18;;;;;;;;;;5059786;28;20032;-90
2023/04/13 00:52:39;;;;;;;10.48;7.97;;;;;;;;;;5077788;28;20020;-92
2023/04/13 00:55:06;;;;;;;10.48;7.93;;;;;;;;;;5063785;28;20024;-92
2023/04/13 00:57:33;;;;;;;18.08;9.70;;;;;;;;;;5063777;28;20028;-89
2023/04/13 01:00:08;;;;;;;25.27;11.73;;;;;;;;;;5063796;28;20028;-89
2023/04/13 01:02:34;;;;;;;18.20;9.18;;;;;;;;;;5081659;28;20070;-89
2023/04/13 01:05:01;;;;;;;10.02;7.70;;;;;;;;;;5080928;28;20056;-91
2023/04/13 01:07:43;;;;;;;13.02;8.35;;;;;;;;;;5081169;28;20046;-91
2023/04/13 01:10:10;;;;;;;9.02;7.18;;;;;;;;;;5063496;28;20120;-89
2023/04/13 01:12:55;;;;;;;10.73;7.88;;;;;;;;;;5043745;28;20025;-91
2023/04/13 01:18:40;;;;;;;14.25;8.68;;;;;;;;;;5052742;28;20039;-92
2023/04/13 01:21:08;;;;;;;19.20;9.65;;;;;;;;;;5061026;28;20033;-90
2023/04/13 01:23:42;;;;;;;15.20;10.20;;;;;;;;;;5060835;28;20029;-90
2023/04/13 01:26:09;;;;;;;13.73;9.50;;;;;;;;;;5060934;28;20032;-91
2023/04/13 01:28:39;;;;;;;13.75;9.55;;;;;;;;;;5059734;28;20033;-88
2023/04/13 01:31:10;;;;;;;17.20;11.05;;;;;;;;;;5060942;28;20037;-91
2023/04/13 01:33:37;;;;;;;15.52;9.98;;;;;;;;;;5061009;28;20349;-90
2023/04/13 01:36:04;;;;;;;11.82;9.27;;;;;;;;;;5060682;28;20031;-90
2023/04/13 01:38:30;;;;;;;14.05;9.18;;;;;;;;;;5060806;28;20045;-88
2023/04/13 01:40:56;;;;;;;12.77;9.45;;;;;;;;;;5059593;28;20040;-90
2023/04/13 01:43:23;;;;;;;11.60;9.52;;;;;;;;;;5059225;28;20412;-90
2023/04/13 01:46:08;;;;;;;13.38;9.77;;;;;;;;;;5059565;28;20025;-89
2023/04/13 01:48:41;;;;;;;16.00;9.85;;;;;;;;;;5060540;28;20033;-90
2023/04/13 01:51:09;;;;;;;16.48;10.10;;;;;;;;;;5059327;28;20300;-91
2023/04/13 01:53:43;;;;;;;12.40;9.13;;;;;;;;;;5060446;28;20028;-90
2023/04/13 01:56:11;;;;;;;13.60;10.13;;;;;;;;;;5059915;28;20028;-90
2023/04/13 02:01:41;;;;;;;12.10;8.80;;;;;;;;;;5060485;28;20158;-91
2023/04/13 02:16:03;;;;;;;13.27;9.57;;;;;;;;;;5074995;28;20692;-91
2023/04/13 02:18:29;;;;;;;12.27;9.43;;;;;;;;;;5073412;28;20119;-92
2023/04/13 02:23:59;;;;;;;14.48;9.48;;;;;;;;;;5074528;28;20043;-90
2023/04/13 02:26:25;;;;;;;14.15;9.98;;;;;;;;;;5073703;28;20025;-92
2023/04/13 02:28:51;;;;;;;11.98;9.70;;;;;;;;;;5074978;28;20013;-91
2023/04/13 02:31:18;;;;;;;13.55;9.32;;;;;;;;;;5073637;28;20021;-91
2023/04/13 02:33:45;;;;;;;12.13;9.73;;;;;;;;;;5073577;28;20040;-89
2023/04/13 02:39:14;;;;;;;12.13;8.88;;;;;;;;;;5074764;28;20024;-91
2023/04/13 02:41:41;;;;;;;14.02;9.10;;;;;;;;;;5074675;28;20043;-90
2023/04/13 02:44:08;;;;;;;13.65;9.90;;;;;;;;;;5074143;28;20422;-91
2023/04/13 02:46:34;;;;;;;18.02;9.75;;;;;;;;;;5074304;28;20036;-91
2023/04/13 02:49:00;;;;;;;11.13;8.95;;;;;;;;;;5074399;28;20349;-92
2023/04/13 02:51:26;;;;;;;13.32;9.48;;;;;;;;;;5074616;28;20021;-91
2023/04/13 02:53:54;;;;;;;15.40;9.38;;;;;;;;;;5073306;28;20087;-91
2023/04/13 02:56:22;;;;;;;12.30;9.18;;;;;;;;;;5074307;28;20021;-90
2023/04/13 02:58:48;;;;;;;13.98;10.15;;;;;;;;;;5073140;28;20422;-92
2023/04/13 03:01:15;;;;;;;17.23;10.85;;;;;;;;;;5073961;28;20056;-91
2023/04/13 03:03:41;;;;;;;17.55;11.07;;;;;;;;;;5073163;28;20112;-94
2023/04/13 03:06:13;;;;;;;16.83;10.65;;;;;;;;;;5074124;28;20110;-92
2023/04/13 03:08:40;;;;;;;16.15;11.13;;;;;;;;;;5073873;28;20025;-91
2023/04/13 03:11:08;;;;;;;14.68;10.65;;;;;;;;;;5074109;28;20017;-91
2023/04/13 03:13:34;;;;;;;17.40;11.27;;;;;;;;;;5073707;28;20299;-91
2023/04/13 03:16:01;;;;;;;16.83;10.70;;;;;;;;;;5065672;28;20044;-90
2023/04/13 03:18:27;;;;;;;20.60;11.45;;;;;;;;;;5060512;28;20021;-91
2023/04/13 03:20:53;;;;;;;17.00;10.75;;;;;;;;;;5059818;28;20472;-91
2023/04/13 03:23:19;;;;;;;17.52;10.43;;;;;;;;;;5060081;28;20025;-91
2023/04/13 03:25:45;;;;;;;17.40;12.07;;;;;;;;;;5046852;28;20358;-91
2023/04/13 03:28:11;;;;;;;14.40;10.60;;;;;;;;;;5039427;28;20120;-90
2023/04/13 03:30:37;;;;;;;14.65;10.45;;;;;;;;;;5040072;28;20017;-90
2023/04/13 03:33:04;;;;;;;15.57;11.10;;;;;;;;;;5039215;28;20025;-90
2023/04/13 03:35:30;;;;;;;16.85;10.40;;;;;;;;;;5055405;28;20052;-91
2023/04/13 03:37:56;;;;;;;17.65;10.25;;;;;;;;;;5039229;28;20041;-91
2023/04/13 03:40:22;;;;;;;14.00;10.52;;;;;;;;;;5040108;28;20033;-91
2023/04/13 03:42:48;;;;;;;15.15;10.07;;;;;;;;;;5039852;28;20033;-92
2023/04/13 03:45:14;;;;;;;14.07;10.43;;;;;;;;;;5039886;28;20033;-93
2023/04/13 03:47:40;;;;;;;13.10;9.90;;;;;;;;;;5039028;28;20386;-93
2023/04/13 03:50:07;;;;;;;14.57;10.70;;;;;;;;;;5048961;28;20464;-92
2023/04/13 03:52:33;;;;;;;12.45;9.90;;;;;;;;;;5060032;28;20140;-94
2023/04/13 03:54:59;;;;;;;13.57;9.05;;;;;;;;;;5049589;28;20029;-91
2023/04/13 03:57:26;;;;;;;13.13;9.55;;;;;;;;;;5060064;28;20033;-91
2023/04/13 03:59:52;;;;;;;15.40;9.25;;;;;;;;;;5059183;28;20032;-93
2023/04/13 04:02:18;;;;;;;18.80;9.18;;;;;;;;;;5059668;28;20032;-93
2023/04/13 04:07:48;;;;;;;14.25;8.88;;;;;;;;;;5059592;28;20028;-91
2023/04/13 04:10:16;;;;;;;17.75;9.90;;;;;;;;;;5058593;28;20064;-91
2023/04/13 04:12:42;;;;;;;13.13;9.98;;;;;;;;;;5059695;28;20343;-91
2023/04/13 04:15:08;;;;;;;15.32;10.65;;;;;;;;;;5048462;28;20049;-93
2023/04/13 04:17:34;;;;;;;14.10;10.30;;;;;;;;;;5039432;28;20032;-91
2023/04/13 04:20:02;;;;;;;18.20;10.98;;;;;;;;;;5039347;28;20022;-91
2023/04/13 04:22:28;;;;;;;16.30;10.82;;;;;;;;;;5039296;28;20132;-92
2023/04/13 04:24:58;;;;;;;25.35;15.20;;;;;;;;;;5038245;28;20029;-92
2023/04/13 04:27:25;;;;;;;50.58;25.52;;;;;;;;;;5037290;28;20029;-90
2023/04/13 04:29:58;;;;;;;80.25;32.45;;;;;;;;;;5039531;28;20045;-91
2023/04/13 04:32:24;;;;;;;131.95;46.95;;;;;;;;;;5039149;28;20017;-90
2023/04/13 04:34:51;;;;;;;104.45;38.22;;;;;;;;;;5045676;28;20017;-91
2023/04/13 04:37:22;;;;;;;91.90;35.50;;;;;;;;;;5059233;28;20326;-91
2023/04/13 04:39:48;;;;;;;59.80;26.17;;;;;;;;;;5059098;28;20029;-91
2023/04/13 04:42:17;;;;;;;46.00;22.77;;;;;;;;;;5058918;28;20111;-92
2023/04/13 04:44:46;;;;;;;29.17;16.63;;;;;;;;;;5058692;28;20025;-91
2023/04/13 04:47:23;;;;;;;23.52;13.93;;;;;;;;;;5056107;28;20080;-93
2023/04/13 04:52:52;;;;;;;18.73;13.15;;;;;;;;;;5038895;28;20040;-92
2023/04/13 04:55:18;;;;;;;17.60;11.63;;;;;;;;;;5037733;28;20111;-94
2023/04/13 04:57:45;;;;;;;15.02;11.48;;;;;;;;;;5037456;28;20029;-94
2023/04/13 05:00:14;;;;;;;18.13;10.98;;;;;;;;;;5038759;28;20068;-92
2023/04/13 05:02:40;;;;;;;16.33;10.65;;;;;;;;;;5052255;28;20040;-91
2023/04/13 05:08:10;;;;;;;14.48;9.70;;;;;;;;;;5041649;28;20037;-92
2023/04/13 05:10:51;;;;;;;15.23;10.57;;;;;;;;;;5037338;28;20125;-90
2023/04/13 05:13:17;;;;;;;14.57;9.45;;;;;;;;;;5053045;28;20116;-90
2023/04/13 05:15:43;;;;;;;15.38;9.52;;;;;;;;;;5045138;28;20056;-94
2023/04/13 05:18:11;;;;;;;13.27;9.25;;;;;;;;;;5057221;28;20024;-91
2023/04/13 05:20:58;;;;;;;13.95;10.07;;;;;;;;;;5043286;28;20378;-92
2023/04/13 05:23:24;;;;;;;13.48;10.02;;;;;;;;;;5037965;28;20319;-92
2023/04/13 05:25:52;;;;;;;16.55;11.45;;;;;;;;;;5038451;28;20028;-92
2023/04/13 05:28:20;;;;;;;22.23;12.35;;;;;;;;;;5037177;28;20025;-92
2023/04/13 05:30:46;;;;;;;14.63;10.60;;;;;;;;;;5038259;28;20029;-91
2023/04/13 05:33:12;;;;;;;15.93;10.77;;;;;;;;;;5056580;28;20453;-91
2023/04/13 05:38:42;;;;;;;14.80;9.50;;;;;;;;;;5057011;28;20027;-93
2023/04/13 05:41:09;;;;;;;11.75;8.35;;;;;;;;;;5057069;28;20040;-91
2023/04/13 05:43:35;;;;;;;11.27;8.13;;;;;;;;;;5055541;28;20041;-91
2023/04/13 05:46:01;;;;;;;12.65;8.88;;;;;;;;;;5046365;28;20025;-91
2023/04/13 05:48:28;;;;;;;10.32;8.48;;;;;;;;;;5044781;28;20033;-89
2023/04/13 05:50:57;;;;;;;11.88;8.52;;;;;;;;;;5041574;28;20021;-89
2023/04/13 05:53:24;;;;;;;16.70;10.20;;;;;;;;;;5047382;28;20043;-91
2023/04/13 05:55:50;;;;;;;14.38;9.23;;;;;;;;;;5043255;28;20422;-91
2023/04/13 05:58:17;;;;;;;12.15;8.65;;;;;;;;;;5048718;28;20426;-90
2023/04/13 06:00:44;;;;;;;15.55;10.45;;;;;;;;;;5045244;28;20029;-92
2023/04/13 06:03:10;;;;;;;17.08;10.73;;;;;;;;;;5044211;28;20076;-91
2023/04/13 06:05:37;;;;;;;14.65;10.65;;;;;;;;;;5037415;28;20109;-91
2023/04/13 06:08:03;;;;;;;14.98;9.15;;;;;;;;;;5048945;28;20047;-90
2023/04/13 06:10:30;;;;;;;11.85;8.52;;;;;;;;;;5039861;28;20063;-94
2023/04/13 06:12:56;;;;;;;16.75;9.45;;;;;;;;;;5058305;28;20318;-94
2023/04/13 06:15:22;;;;;;;14.70;9.50;;;;;;;;;;5058784;28;20430;-93
2023/04/13 06:17:54;;;;;;;14.05;9.02;;;;;;;;;;5070577;28;20044;-95
2023/04/13 06:20:20;;;;;;;12.25;8.20;;;;;;;;;;5072542;28;20021;-95
2023/04/13 06:22:48;;;;;;;11.23;8.10;;;;;;;;;;5062938;28;20029;-95
2023/04/13 06:25:15;;;;;;;13.77;9.02;;;;;;;;;;5064001;28;20036;-94
2023/04/13 06:27:42;;;;;;;12.48;8.68;;;;;;;;;;5062873;28;20028;-94
2023/04/13 06:30:10;;;;;;;15.07;8.80;;;;;;;;;;5068925;28;20029;-94
2023/04/13 06:32:40;;;;;;;14.43;8.25;;;;;;;;;;5068733;28;20017;-95
2023/04/13 06:35:06;;;;;;;14.00;8.02;;;;;;;;;;5065975;28;20025;-95
2023/04/13 06:37:35;;;;;;;14.60;8.68;;;;;;;;;;5067224;28;20037;-95
2023/04/13 06:40:14;;;;;;;15.90;9.13;;;;;;;;;;5069243;28;20032;-95
2023/04/13 06:42:42;;;;;;;12.07;7.95;;;;;;;;;;5067559;28;20021;-95
2023/04/13 06:45:15;;;;;;;17.95;8.55;;;;;;;;;;5064825;28;20059;-95
2023/04/13 06:47:41;;;;;;;15.80;8.88;;;;;;;;;;5058981;28;20025;-94
2023/04/13 06:50:08;;;;;;;18.42;10.05;;;;;;;;;;5060118;28;20025;-94
2023/04/13 06:52:35;;;;;;;14.70;9.02;;;;;;;;;;5069426;28;20029;-95
2023/04/13 06:55:01;;;;;;;14.05;7.68;;;;;;;;;;5067757;28;20033;-93
2023/04/13 06:57:28;;;;;;;12.30;8.48;;;;;;;;;;5066519;28;20049;-94
2023/04/13 06:59:54;;;;;;;13.80;7.60;;;;;;;;;;5063085;28;20025;-94
2023/04/13 07:12:56;;;;;;;12.57;6.77;;;;;;;;;;6029623;23;20016;-94
2023/04/13 07:15:47;;;;;;;9.65;6.45;;;;;;;;;;5004479;28;20256;-95
2023/04/13 07:24:22;;;;;;;14.00;7.32;;;;;;;;;;5015945;28;20069;-95
2023/04/13 07:26:48;;;;;;;12.65;8.57;;;;;;;;;;5079831;23;20054;-94
2023/04/13 07:29:17;;;;;;;15.40;8.10;;;;;;;;;;5025336;28;20036;-95
2023/04/13 07:31:43;;;;;;;18.83;9.30;;;;;;;;;;5024034;28;20026;-93
2023/04/13 07:34:11;;;;;;;15.77;7.68;;;;;;;;;;5003887;28;20068;-94
2023/04/13 07:36:37;;;;;;;14.65;6.95;;;;;;;;;;5024873;28;20032;-95
2023/04/13 07:39:03;;;;;;;10.02;6.15;;;;;;;;;;5004668;28;20061;-95
2023/04/13 07:41:30;;;;;;;15.60;6.60;;;;;;;;;;5025060;28;20034;-95
2023/04/13 07:43:56;;;;;;;13.80;6.95;;;;;;;;;;5065540;23;20442;-94
2023/04/13 07:46:25;;;;;;;12.57;6.95;;;;;;;;;;5050770;28;20025;-94
2023/04/13 08:22:15;;;;;;;15.77;6.18;;;;;;;;;;5168042;23;20020;-96
2023/04/13 08:24:47;;;;;;;6.75;3.88;;;;;;;;;;4999834;28;20058;-96
2023/04/13 08:33:10;;;;;;;9.38;2.60;;;;;;;;;;5520531;23;20136;-95
2023/04/13 08:43:24;;;;;;;7.30;3.60;;;;;;;;;;5054891;23;20127;-94
2023/04/13 08:45:52;;;;;;;9.43;3.88;;;;;;;;;;4956861;29;20034;-95
2023/04/13 08:48:21;;;;;;;7.18;2.60;;;;;;;;;;4957401;29;20023;-95
2023/04/13 09:14:22;;;;;;;13.02;3.63;;;;;;;;;;5641755;23;20054;-95
2023/04/13 09:17:04;;;;;;;10.25;2.67;;;;;;;;;;5722782;23;20022;-95
2023/04/13 09:19:38;;;;;;;7.40;2.60;;;;;;;;;;4956789;29;20066;-95
2023/04/13 09:22:17;;;;;;;4.00;1.88;;;;;;;;;;4944693;29;20030;-96
2023/04/13 09:25:13;;;;;;;5.20;2.30;;;;;;;;;;4959572;29;20107;-96
2023/04/13 09:27:57;;;;;;;5.72;2.80;;;;;;;;;;4954179;29;20032;-96
2023/04/13 09:30:24;;;;;;;8.68;3.63;;;;;;;;;;4956439;29;20157;-96
2023/04/13 09:33:06;;;;;;;3.65;1.60;;;;;;;;;;4937882;29;20028;-96
2023/04/13 09:38:38;;;;;;;4.97;1.83;;;;;;;;;;4952063;29;20066;-95
2023/04/13 09:41:07;;;;;;;8.20;2.13;;;;;;;;;;4932703;29;20043;-95
2023/04/13 09:43:37;;;;;;;4.95;2.10;;;;;;;;;;4943834;29;20028;-94
2023/04/13 09:46:05;;;;;;;8.52;2.30;;;;;;;;;;4928242;29;20031;-95
2023/04/13 10:18:58;;;;;;;6.22;2.10;;;;;;;;;;5709459;23;20270;-92
2023/04/13 11:09:05;;;;;;;4.65;1.92;;;;;;;;;;4979604;28;20030;-95
2023/04/13 11:19:24;;;;;;;6.13;2.70;;;;;;;;;;5637802;23;20051;-92
2023/04/13 11:30:22;;;;;;;4.70;2.00;;;;;;;;;;5393034;23;20057;-95
2023/04/13 11:32:49;;;;;;;9.88;3.10;;;;;;;;;;4955735;29;20050;-85
2023/04/13 11:35:17;;;;;;;8.50;2.60;;;;;;;;;;4960342;29;20071;-85
2023/04/13 11:37:45;;;;;;;5.18;1.75;;;;;;;;;;4961298;28;20031;-85
2023/04/13 11:40:16;;;;;;;7.93;2.15;;;;;;;;;;4961713;29;20414;-85
2023/04/13 11:42:43;;;;;;;6.05;1.70;;;;;;;;;;4960369;29;20110;-83
2023/04/13 11:45:10;;;;;;;4.47;2.28;;;;;;;;;;4961265;29;20055;-84
2023/04/13 11:47:36;;;;;;;2.58;1.75;;;;;;;;;;4960450;29;20444;-84
2023/04/13 11:50:05;;;;;;;3.80;2.10;;;;;;;;;;4959909;29;20023;-85
2023/04/13 11:52:32;;;;;;;6.60;1.90;;;;;;;;;;4943758;29;20023;-84
2023/04/13 11:54:58;;;;;;;5.45;1.70;;;;;;;;;;4960921;28;20438;-84
2023/04/13 11:57:24;;;;;;;3.75;1.80;;;;;;;;;;4959520;29;20043;-84
2023/04/13 11:59:53;;;;;;;4.53;2.00;;;;;;;;;;4960227;29;20050;-83
2023/04/13 12:02:30;;;;;;;3.90;2.05;;;;;;;;;;4960015;29;20082;-84
2023/04/13 12:04:57;;;;;;;3.53;1.92;;;;;;;;;;4960047;29;20043;-82
2023/04/13 12:07:23;;;;;;;3.50;1.98;;;;;;;;;;4961138;28;20043;-84
2023/04/13 12:09:50;;;;;;;8.25;4.00;;;;;;;;;;4960071;29;20027;-84
2023/04/13 12:12:16;;;;;;;6.88;2.50;;;;;;;;;;4960716;29;20023;-84
2023/04/13 12:14:42;;;;;;;8.90;3.00;;;;;;;;;;4960107;29;20031;-84
2023/04/13 12:17:12;;;;;;;5.70;2.70;;;;;;;;;;4959699;29;20027;-84
2023/04/13 12:19:41;;;;;;;6.20;2.83;;;;;;;;;;4960331;29;20378;-84
2023/04/13 12:22:07;;;;;;;6.15;2.50;;;;;;;;;;4960902;29;20027;-84
2023/04/13 12:24:34;;;;;;;3.95;1.83;;;;;;;;;;4960656;29;20032;-84
2023/04/13 12:27:04;;;;;;;6.22;2.05;;;;;;;;;;4960670;29;20028;-84
2023/04/13 12:29:31;;;;;;;7.35;1.92;;;;;;;;;;4960310;29;20403;-84
2023/04/13 12:32:02;;;;;;;6.63;2.60;;;;;;;;;;4959037;29;20031;-84
2023/04/13 12:34:28;;;;;;;7.13;2.33;;;;;;;;;;4959437;29;20035;-83
2023/04/13 12:36:56;;;;;;;5.35;2.40;;;;;;;;;;4960459;29;20031;-84
2023/04/13 12:39:22;;;;;;;11.15;2.58;;;;;;;;;;4960175;29;20023;-84
2023/04/13 12:41:49;;;;;;;12.43;3.08;;;;;;;;;;4960583;29;20129;-84
2023/04/13 12:44:15;;;;;;;10.65;2.63;;;;;;;;;;4959324;29;20037;-84
2023/04/13 12:46:41;;;;;;;4.95;2.03;;;;;;;;;;4959361;29;20027;-84
2023/04/13 12:49:07;;;;;;;5.50;2.40;;;;;;;;;;4942490;29;20035;-84
2023/04/13 12:51:33;;;;;;;5.10;2.35;;;;;;;;;;4960265;29;20322;-84
2023/04/13 12:53:59;;;;;;;5.85;2.58;;;;;;;;;;4960119;29;20314;-84
2023/04/13 12:56:25;;;;;;;7.90;2.67;;;;;;;;;;4960053;29;20381;-84
2023/04/13 12:58:51;;;;;;;5.95;2.65;;;;;;;;;;4960171;29;20034;-84
2023/04/13 13:01:18;;;;;;;4.97;2.53;;;;;;;;;;4960218;29;20061;-84
2023/04/13 13:03:44;;;;;;;3.53;2.30;;;;;;;;;;4960063;29;20070;-84
2023/04/13 13:06:11;;;;;;;4.18;2.60;;;;;;;;;;4958803;29;20025;-84
2023/04/13 13:08:39;;;;;;;6.30;3.20;;;;;;;;;;4959866;28;20035;-84
2023/04/13 13:11:07;;;;;;;7.03;2.85;;;;;;;;;;4960130;29;20027;-84
2023/04/13 13:13:33;;;;;;;4.85;2.30;;;;;;;;;;4959049;29;20095;-84
2023/04/13 13:15:59;;;;;;;4.70;2.60;;;;;;;;;;4959929;29;20028;-84
2023/04/13 13:18:25;;;;;;;8.95;2.83;;;;;;;;;;4960022;29;20027;-84
2023/04/13 13:20:52;;;;;;;7.18;2.90;;;;;;;;;;4959781;29;20027;-84
2023/04/13 13:23:18;;;;;;;7.28;2.92;;;;;;;;;;4959909;29;20100;-84
2023/04/13 13:25:45;;;;;;;5.57;2.20;;;;;;;;;;4958745;29;20023;-84
2023/04/13 13:28:11;;;;;;;5.40;2.20;;;;;;;;;;4958474;29;20437;-83
2023/04/13 13:30:37;;;;;;;14.23;5.65;;;;;;;;;;4959335;28;20055;-84
2023/04/13 13:33:06;;;;;;;10.05;3.88;;;;;;;;;;4959749;29;20035;-84
2023/04/13 13:35:32;;;;;;;5.00;2.85;;;;;;;;;;4959576;29;20031;-85
2023/04/13 13:37:59;;;;;;;4.35;2.20;;;;;;;;;;4959551;29;20318;-84
2023/04/13 13:40:26;;;;;;;6.07;2.60;;;;;;;;;;4959391;29;20422;-84
2023/04/13 13:42:52;;;;;;;6.13;2.50;;;;;;;;;;4958678;29;20039;-84
2023/04/13 13:45:19;;;;;;;5.18;2.80;;;;;;;;;;4959537;29;20038;-85
2023/04/13 13:47:50;;;;;;;4.35;2.72;;;;;;;;;;4959351;29;20027;-85
2023/04/13 13:50:17;;;;;;;6.80;2.67;;;;;;;;;;4957838;29;20027;-85
2023/04/13 13:52:43;;;;;;;5.80;2.90;;;;;;;;;;4958446;29;20031;-85
2023/04/13 13:55:09;;;;;;;7.22;3.35;;;;;;;;;;4959236;29;20506;-84
2023/04/13 13:57:35;;;;;;;4.35;2.75;;;;;;;;;;4958937;29;20417;-84
2023/04/13 14:00:04;;;;;;;9.35;3.20;;;;;;;;;;4959467;28;20074;-84
2023/04/13 14:02:30;;;;;;;5.40;2.78;;;;;;;;;;4959165;29;20039;-85
2023/04/13 14:04:56;;;;;;;5.72;2.75;;;;;;;;;;4958460;29;20425;-84
2023/04/13 14:07:22;;;;;;;5.15;2.33;;;;;;;;;;4959248;28;20023;-84
2023/04/13 14:09:48;;;;;;;4.57;2.58;;;;;;;;;;4958151;29;20054;-85
2023/04/13 14:12:14;;;;;;;5.43;2.15;;;;;;;;;;4959190;29;20031;-85
2023/04/13 14:14:40;;;;;;;4.88;2.30;;;;;;;;;;4958147;29;20035;-84
2023/04/13 14:17:06;;;;;;;3.67;2.28;;;;;;;;;;4959151;29;20382;-84
2023/04/13 14:19:33;;;;;;;4.93;2.45;;;;;;;;;;4959201;29;20378;-84
2023/04/13 14:21:59;;;;;;;6.13;2.72;;;;;;;;;;4959166;29;20035;-84
2023/04/13 14:24:26;;;;;;;5.35;3.00;;;;;;;;;;4959298;29;20074;-84
2023/04/13 14:26:52;;;;;;;5.53;3.78;;;;;;;;;;4958879;29;20034;-84
2023/04/13 14:29:18;;;;;;;4.85;2.33;;;;;;;;;;4959194;28;20051;-84
2023/04/13 14:31:44;;;;;;;8.07;3.72;;;;;;;;;;4959221;29;20062;-84
2023/04/13 14:34:10;;;;;;;6.60;3.50;;;;;;;;;;4957998;29;20122;-83
2023/04/13 14:36:39;;;;;;;5.88;3.33;;;;;;;;;;4958713;29;20042;-84
2023/04/13 14:39:05;;;;;;;3.10;2.72;;;;;;;;;;4957333;29;20039;-84
2023/04/13 14:41:31;;;;;;;3.80;2.80;;;;;;;;;;4958972;29;20067;-84
2023/04/13 14:43:58;;;;;;;7.13;3.25;;;;;;;;;;4959147;29;20106;-84
2023/04/13 14:46:26;;;;;;;6.78;2.80;;;;;;;;;;4957891;29;20406;-84
2023/04/13 14:48:52;;;;;;;9.52;3.00;;;;;;;;;;4958966;29;20031;-84
2023/04/13 14:51:18;;;;;;;9.35;3.38;;;;;;;;;;4957626;29;20023;-84
2023/04/13 14:53:46;;;;;;;6.57;2.85;;;;;;;;;;4958500;29;20019;-84
2023/04/13 14:56:13;;;;;;;8.35;2.78;;;;;;;;;;4958726;29;20443;-84
2023/04/13 14:58:39;;;;;;;4.32;2.50;;;;;;;;;;4958461;29;20086;-84
2023/04/13 15:01:20;;;;;;;6.82;3.13;;;;;;;;;;4958643;29;20039;-84
2023/04/13 15:03:46;;;;;;;6.90;2.90;;;;;;;;;;4957609;29;20027;-85
2023/04/13 15:06:13;;;;;;;6.95;3.75;;;;;;;;;;4957525;29;20047;-84
2023/04/13 15:08:39;;;;;;;7.20;3.17;;;;;;;;;;4958661;28;20054;-84
2023/04/13 15:11:05;;;;;;;8.88;3.30;;;;;;;;;;4957585;28;20031;-85
2023/04/13 15:13:31;;;;;;;6.15;2.65;;;;;;;;;;4961181;29;20442;-84
2023/04/13 15:15:57;;;;;;;10.85;3.60;;;;;;;;;;4962377;29;20038;-85
2023/04/13 15:18:23;;;;;;;9.27;3.30;;;;;;;;;;4962288;29;20042;-84
2023/04/13 15:20:49;;;;;;;6.05;3.25;;;;;;;;;;4962169;29;20035;-85
2023/04/13 15:23:16;;;;;;;6.63;3.20;;;;;;;;;;4962127;29;20303;-84
2023/04/13 15:25:42;;;;;;;7.38;3.03;;;;;;;;;;4960799;29;20035;-84
2023/04/13 15:28:09;;;;;;;7.50;3.00;;;;;;;;;;4960904;29;20122;-84
2023/04/13 15:30:39;;;;;;;5.13;2.88;;;;;;;;;;4944678;29;20051;-84
2023/04/13 15:33:05;;;;;;;5.05;2.58;;;;;;;;;;4961847;29;20035;-85
2023/04/13 15:35:33;;;;;;;4.45;2.50;;;;;;;;;;4961886;28;20031;-84
2023/04/13 15:38:08;;;;;;;9.38;2.92;;;;;;;;;;4961796;29;20035;-84
2023/04/13 15:40:37;;;;;;;7.60;3.45;;;;;;;;;;4961530;29;20110;-84
2023/04/13 15:43:04;;;;;;;7.97;3.63;;;;;;;;;;4961425;29;20034;-84
2023/04/13 15:45:30;;;;;;;8.50;3.20;;;;;;;;;;4960805;29;20066;-85
2023/04/13 15:47:56;;;;;;;4.88;2.45;;;;;;;;;;4960559;29;20063;-84
2023/04/13 15:50:23;;;;;;;7.68;2.47;;;;;;;;;;4961626;29;20363;-84
2023/04/13 15:52:50;;;;;;;7.00;2.85;;;;;;;;;;4959967;29;20050;-84
2023/04/13 15:55:16;;;;;;;9.95;3.20;;;;;;;;;;4960452;29;20027;-84
2023/04/13 15:57:43;;;;;;;12.48;3.53;;;;;;;;;;4960404;29;20028;-85
2023/04/13 16:00:09;;;;;;;9.68;3.97;;;;;;;;;;4961238;29;20050;-84
2023/04/13 16:02:36;;;;;;;8.80;4.68;;;;;;;;;;4961223;29;20043;-84
2023/04/13 16:05:02;;;;;;;17.85;6.97;;;;;;;;;;4961126;29;20035;-84
2023/04/13 16:07:28;;;;;;;13.73;5.95;;;;;;;;;;4961117;28;20158;-84
2023/04/13 16:10:00;;;;;;;10.10;4.63;;;;;;;;;;4961051;29;20050;-84
2023/04/13 16:12:30;;;;;;;6.13;3.63;;;;;;;;;;4961286;29;20098;-84
2023/04/13 16:14:58;;;;;;;10.70;3.00;;;;;;;;;;4959609;29;20035;-84
2023/04/13 16:17:33;;;;;;;9.50;3.70;;;;;;;;;;4960895;29;20027;-85
2023/04/13 16:20:21;;;;;;;5.93;2.90;;;;;;;;;;4961380;29;20031;-84
2023/04/13 16:22:49;;;;;;;7.85;2.70;;;;;;;;;;4960321;28;20028;-84
2023/04/13 16:25:16;;;;;;;4.65;2.45;;;;;;;;;;4959627;29;20027;-84
2023/04/13 16:27:42;;;;;;;7.53;2.92;;;;;;;;;;4959765;29;20039;-84
2023/04/13 16:30:12;;;;;;;5.82;2.20;;;;;;;;;;4960725;28;20051;-85
2023/04/13 16:32:41;;;;;;;8.60;2.88;;;;;;;;;;4959767;29;20031;-84
2023/04/13 16:35:08;;;;;;;5.20;2.55;;;;;;;;;;4960672;29;20027;-84
2023/04/13 16:37:35;;;;;;;8.00;3.95;;;;;;;;;;4961047;29;20031;-84
2023/04/13 16:40:06;;;;;;;8.70;3.22;;;;;;;;;;4959396;29;20402;-84
2023/04/13 16:42:32;;;;;;;10.60;3.70;;;;;;;;;;4960675;29;20074;-84
2023/04/13 16:44:58;;;;;;;4.03;2.35;;;;;;;;;;4960175;29;20031;-84
2023/04/13 16:47:24;;;;;;;3.95;2.63;;;;;;;;;;4959607;29;20027;-93
2023/04/13 16:49:50;;;;;;;4.70;2.03;;;;;;;;;;4960734;29;20321;-93
2023/04/13 16:58:24;;;;;;;6.68;1.95;;;;;;;;;;4960697;29;20033;-91
2023/04/13 17:00:51;;;;;;;9.82;1.63;;;;;;;;;;4959618;29;20035;-93
2023/04/13 17:03:17;;;;;;;8.05;1.98;;;;;;;;;;4960569;29;20027;-95
2023/04/13 17:05:43;;;;;;;12.38;1.88;;;;;;;;;;4960505;29;20031;-92
2023/04/13 17:08:10;;;;;;;4.85;1.70;;;;;;;;;;4959995;28;20037;-92
2023/04/13 17:10:36;;;;;;;7.25;1.67;;;;;;;;;;4960234;29;20087;-92
2023/04/13 17:13:02;;;;;;;7.15;1.75;;;;;;;;;;4959196;29;20023;-91
2023/04/13 17:15:28;;;;;;;6.57;2.70;;;;;;;;;;4959136;29;20047;-93
2023/04/13 17:17:54;;;;;;;8.85;3.60;;;;;;;;;;4959254;29;20027;-94
2023/04/13 17:20:21;;;;;;;4.35;1.60;;;;;;;;;;4959679;29;20448;-93
2023/04/13 17:29:01;;;;;;;6.55;2.30;;;;;;;;;;4971132;28;20038;-92
2023/04/13 17:31:28;;;;;;;9.45;2.72;;;;;;;;;;4921643;29;20044;-93
2023/04/13 17:33:54;;;;;;;9.98;2.80;;;;;;;;;;4905027;29;20024;-93
2023/04/13 17:36:23;;;;;;;5.18;2.45;;;;;;;;;;4904989;29;20251;-91
2023/04/13 17:38:49;;;;;;;4.22;2.72;;;;;;;;;;4921670;29;20060;-93
2023/04/13 17:41:15;;;;;;;5.20;2.00;;;;;;;;;;4921688;29;20048;-93
2023/04/13 17:43:43;;;;;;;7.55;1.67;;;;;;;;;;4904987;29;20038;-93
2023/04/13 17:46:11;;;;;;;8.82;2.20;;;;;;;;;;4905680;29;20047;-91
2023/04/13 17:48:37;;;;;;;4.13;2.05;;;;;;;;;;4921563;29;20458;-94
2023/04/13 17:51:03;;;;;;;5.20;1.98;;;;;;;;;;4904741;29;20116;-89
2023/04/13 17:53:29;;;;;;;4.30;2.40;;;;;;;;;;4904866;29;20075;-92
2023/04/13 17:55:55;;;;;;;4.20;2.40;;;;;;;;;;4904640;29;20146;-93
2023/04/13 17:58:21;;;;;;;4.15;2.42;;;;;;;;;;4921461;29;20034;-92
2023/04/13 18:00:48;;;;;;;6.95;2.30;;;;;;;;;;4921513;29;20062;-92
2023/04/13 18:03:14;;;;;;;6.32;1.85;;;;;;;;;;4904658;29;20025;-92
2023/04/13 18:05:43;;;;;;;4.85;2.25;;;;;;;;;;4920929;29;20032;-93
2023/04/13 18:08:09;;;;;;;5.40;2.45;;;;;;;;;;4922231;29;20024;-92
2023/04/13 18:10:35;;;;;;;5.93;2.67;;;;;;;;;;4904643;29;20056;-91
2023/04/13 18:13:01;;;;;;;6.15;2.03;;;;;;;;;;4904579;29;20047;-91
2023/04/13 18:15:27;;;;;;;4.45;2.03;;;;;;;;;;4904618;29;20091;-91
2023/04/13 18:17:53;;;;;;;5.88;2.20;;;;;;;;;;4904645;29;20039;-91
2023/04/13 18:20:19;;;;;;;9.23;2.20;;;;;;;;;;4904443;29;20067;-92
2023/04/13 18:22:45;;;;;;;4.22;1.80;;;;;;;;;;4921029;29;20042;-89
2023/04/13 18:25:11;;;;;;;5.00;1.90;;;;;;;;;;4920971;29;20076;-92
2023/04/13 18:27:37;;;;;;;7.13;2.67;;;;;;;;;;4921165;29;20064;-91
2023/04/13 18:30:03;;;;;;;8.20;2.63;;;;;;;;;;4917559;29;20051;-93